Time;durP1;ratioP1;P1;durP2;ratioP2;P2;SDS_P1;SDS_P2;PMS_P1;PMS_P2;Temp;Humidity;BMP_temperature;BMP_pressure;BME280_temperature;BME280_humidity;BME280_pressure;Samples;Min_cycle;Max_cycle;Signal;HPM_P1;HPM_P2
2023/09/13 00:00:31;;;;;;;0.10;0.10;;;;;;;17.57;100.00;96280.97;5108267;27;20243;-79
2023/09/13 00:03:17;;;;;;;0.00;0.00;;;;;;;17.52;100.00;96284.59;5107555;27;20043;-78
2023/09/13 00:06:03;;;;;;;0.10;0.10;;;;;;;17.55;100.00;96285.91;5106922;27;20039;-78
2023/09/13 00:08:49;;;;;;;0.10;0.10;;;;;;;17.44;100.00;96285.28;5106856;27;20793;-79
2023/09/13 00:11:37;;;;;;;0.10;0.10;;;;;;;17.41;100.00;96291.25;5108821;27;20350;-78
2023/09/13 00:14:24;;;;;;;0.00;0.00;;;;;;;17.33;100.00;96293.84;5107940;27;20039;-78
2023/09/13 00:17:12;;;;;;;0.10;0.10;;;;;;;17.21;100.00;96294.31;5108640;27;20039;-78
2023/09/13 00:19:58;;;;;;;0.10;0.10;;;;;;;17.20;100.00;96296.22;5108603;27;20549;-79
2023/09/13 00:22:45;;;;;;;0.00;0.00;;;;;;;17.23;100.00;96292.09;5108087;27;20042;-78
2023/09/13 00:25:31;;;;;;;0.00;0.00;;;;;;;17.24;100.00;96291.81;5108563;27;20042;-78
2023/09/13 00:28:16;;;;;;;0.00;0.00;;;;;;;17.23;100.00;96284.78;5106691;27;20041;-78
2023/09/13 00:31:02;;;;;;;0.10;0.10;;;;;;;17.18;100.00;96284.06;5092865;27;20055;-78
2023/09/13 00:33:48;;;;;;;0.03;0.03;;;;;;;17.13;100.00;96281.47;5107702;27;20039;-78
2023/09/13 00:36:34;;;;;;;0.00;0.00;;;;;;;17.16;100.00;96287.06;5108543;27;20169;-78
2023/09/13 00:39:20;;;;;;;0.08;0.08;;;;;;;17.23;100.00;96281.28;5093805;27;20047;-78
2023/09/13 00:42:06;;;;;;;0.00;0.00;;;;;;;17.25;100.00;96293.41;5094303;27;20099;-78
2023/09/13 00:44:52;;;;;;;0.00;0.00;;;;;;;17.31;100.00;96291.44;5109737;27;20047;-77
2023/09/13 00:47:42;;;;;;;0.00;0.00;;;;;;;17.18;100.00;96300.28;5093084;27;20031;-77
2023/09/13 00:50:28;;;;;;;0.10;0.10;;;;;;;17.20;100.00;96309.72;5094570;27;20782;-77
2023/09/13 00:53:14;;;;;;;0.00;0.00;;;;;;;17.12;100.00;96309.56;5108454;27;20519;-77
2023/09/13 00:56:00;;;;;;;0.08;0.08;;;;;;;17.08;100.00;96303.16;5110454;27;20890;-77
2023/09/13 00:58:48;;;;;;;0.00;0.00;;;;;;;16.99;100.00;96300.31;5106112;27;20046;-77
2023/09/13 01:01:34;;;;;;;0.10;0.10;;;;;;;16.92;100.00;96289.88;5086376;27;20043;-77
2023/09/13 01:04:20;;;;;;;0.10;0.10;;;;;;;16.99;100.00;96301.13;5107250;27;20792;-77
2023/09/13 01:07:08;;;;;;;0.00;0.00;;;;;;;16.95;100.00;96294.66;5107692;27;20113;-77
2023/09/13 01:09:54;;;;;;;0.00;0.00;;;;;;;16.86;100.00;96301.03;5087254;27;20302;-77
2023/09/13 01:12:40;;;;;;;0.10;0.10;;;;;;;16.81;100.00;96295.69;5108741;27;20125;-77
2023/09/13 01:15:30;;;;;;;0.00;0.00;;;;;;;16.88;100.00;96304.25;5107888;27;20052;-77
2023/09/13 01:18:38;;;;;;;0.00;0.00;;;;;;;16.80;100.00;96313.81;5086640;27;20726;-77
2023/09/13 01:21:40;;;;;;;0.00;0.00;;;;;;;16.80;100.00;96311.09;5108869;27;20067;-77
2023/09/13 01:24:45;;;;;;;0.10;0.10;;;;;;;16.79;100.00;96320.31;5107048;27;20654;-77
2023/09/13 01:28:07;;;;;;;0.00;0.00;;;;;;;16.80;100.00;96318.41;5093149;27;20046;-77
2023/09/13 01:30:54;;;;;;;0.00;0.00;;;;;;;16.79;100.00;96316.81;5106492;27;20770;-77
2023/09/13 01:33:40;;;;;;;0.10;0.10;;;;;;;16.77;100.00;96325.22;5090998;27;20134;-77
2023/09/13 01:36:26;;;;;;;0.00;0.00;;;;;;;16.69;100.00;96332.06;5107164;27;20039;-79
2023/09/13 01:39:11;;;;;;;0.10;0.10;;;;;;;16.70;100.00;96325.56;5093410;27;20654;-76
2023/09/13 01:42:06;;;;;;;0.00;0.00;;;;;;;16.71;100.00;96327.16;5106002;27;20236;-76
2023/09/13 01:44:52;;;;;;;0.10;0.10;;;;;;;16.80;100.00;96340.81;5092107;28;20043;-76
2023/09/13 01:47:42;;;;;;;0.00;0.00;;;;;;;16.86;100.00;96334.25;5106843;28;20557;-76
2023/09/13 01:50:28;;;;;;;0.00;0.00;;;;;;;16.75;100.00;96332.00;5087332;28;20039;-76
2023/09/13 01:53:14;;;;;;;0.00;0.00;;;;;;;16.61;100.00;96334.56;5107906;28;20331;-76
2023/09/13 01:56:00;;;;;;;0.10;0.10;;;;;;;16.67;100.00;96328.81;5092919;28;20520;-77
2023/09/13 01:58:49;;;;;;;0.00;0.00;;;;;;;16.70;100.00;96330.16;5093426;28;20078;-77
2023/09/13 02:01:35;;;;;;;0.10;0.10;;;;;;;16.69;100.00;96323.97;5101726;28;20062;-76
2023/09/13 02:04:21;;;;;;;0.03;0.03;;;;;;;16.76;100.00;96326.31;5088904;28;20039;-76
2023/09/13 02:07:08;;;;;;;0.00;0.00;;;;;;;16.72;100.00;96322.56;5417607;22;20052;-76
2023/09/13 02:09:54;;;;;;;0.10;0.10;;;;;;;16.81;100.00;96323.53;5017319;28;20037;-77
2023/09/13 02:12:40;;;;;;;0.00;0.00;;;;;;;16.82;100.00;96317.03;5027994;28;20538;-77
2023/09/13 02:15:27;;;;;;;0.10;0.10;;;;;;;16.80;100.00;96319.22;5024507;28;20047;-78
2023/09/13 02:18:15;;;;;;;0.10;0.10;;;;;;;16.74;100.00;96309.59;5027292;28;20410;-78
2023/09/13 02:21:01;;;;;;;0.13;0.13;;;;;;;16.70;100.00;96314.75;5026718;28;20068;-77
2023/09/13 02:23:47;;;;;;;0.03;0.03;;;;;;;16.64;100.00;96326.69;5027835;28;20064;-77
2023/09/13 02:26:33;;;;;;;0.00;0.00;;;;;;;16.61;100.00;96326.47;5025245;28;20255;-78
2023/09/13 02:29:18;;;;;;;0.10;0.10;;;;;;;16.55;100.00;96333.03;5026816;28;20401;-78
2023/09/13 02:32:04;;;;;;;0.08;0.08;;;;;;;16.54;100.00;96332.22;5019218;28;20056;-78
2023/09/13 02:34:50;;;;;;;0.03;0.03;;;;;;;16.53;100.00;96329.81;5026465;28;20099;-78
2023/09/13 02:37:38;;;;;;;0.10;0.10;;;;;;;16.53;100.00;96329.81;5025448;28;20052;-78
2023/09/13 02:40:24;;;;;;;0.10;0.10;;;;;;;16.54;100.00;96340.31;5014531;28;20345;-78
2023/09/13 02:43:10;;;;;;;0.10;0.10;;;;;;;16.53;100.00;96332.53;5025811;28;20286;-78
2023/09/13 02:45:56;;;;;;;0.00;0.00;;;;;;;16.47;100.00;96336.38;5022887;28;20045;-78
2023/09/13 02:48:42;;;;;;;0.03;0.03;;;;;;;16.48;100.00;96333.38;5026710;28;20044;-78
2023/09/13 02:51:28;;;;;;;0.10;0.10;;;;;;;16.48;100.00;96327.16;5028260;28;20033;-78
2023/09/13 02:54:14;;;;;;;0.00;0.00;;;;;;;16.46;100.00;96338.25;5016215;28;20036;-78
2023/09/13 02:57:03;;;;;;;0.10;0.10;;;;;;;16.45;100.00;96344.75;5018516;28;20406;-78
2023/09/13 02:59:53;;;;;;;0.10;0.10;;;;;;;16.42;100.00;96339.94;5026446;28;20594;-78
2023/09/13 03:02:41;;;;;;;0.05;0.05;;;;;;;16.46;100.00;96332.06;5025560;28;20162;-78
2023/09/13 03:05:32;;;;;;;0.10;0.10;;;;;;;16.46;100.00;96334.75;5027977;28;20040;-78
2023/09/13 03:08:18;;;;;;;0.10;0.10;;;;;;;16.44;100.00;96349.38;5025449;28;20080;-78
2023/09/13 03:11:18;;;;;;;0.00;0.00;;;;;;;16.48;100.00;96338.78;5017761;28;20313;-78
2023/09/13 03:14:07;;;;;;;0.00;0.00;;;;;;;16.46;100.00;96332.88;5024282;28;20491;-78
2023/09/13 03:16:54;;;;;;;0.00;0.00;;;;;;;16.43;100.00;96338.84;5010113;28;20037;-78
2023/09/13 03:19:41;;;;;;;0.10;0.10;;;;;;;16.41;100.00;96346.41;5010369;28;20045;-78
2023/09/13 03:22:27;;;;;;;0.10;0.10;;;;;;;16.34;100.00;96341.38;5013194;28;20036;-78
2023/09/13 03:25:13;;;;;;;0.10;0.10;;;;;;;16.36;100.00;96338.41;5026414;28;20041;-78
2023/09/13 03:27:59;;;;;;;0.00;0.00;;;;;;;16.35;100.00;96342.19;5024209;28;20053;-78
2023/09/13 03:30:45;;;;;;;0.10;0.10;;;;;;;16.37;100.00;96340.81;5025990;28;20034;-77
2023/09/13 03:33:31;;;;;;;0.00;0.00;;;;;;;16.29;100.00;96327.94;5026222;28;20033;-77
2023/09/13 03:36:17;;;;;;;0.10;0.10;;;;;;;16.33;100.00;96341.66;5011256;28;20241;-77
2023/09/13 03:39:07;;;;;;;0.00;0.00;;;;;;;16.38;100.00;96333.50;5014239;28;20129;-78
2023/09/13 03:41:53;;;;;;;0.10;0.10;;;;;;;16.40;100.00;96342.09;5011892;28;20033;-77
2023/09/13 03:44:39;;;;;;;0.10;0.10;;;;;;;16.41;100.00;96330.22;5011613;28;20284;-77
2023/09/13 03:47:25;;;;;;;0.10;0.10;;;;;;;16.39;100.00;96330.50;5026163;28;20037;-77
2023/09/13 03:50:12;;;;;;;0.10;0.10;;;;;;;16.38;100.00;96336.19;5005129;28;20076;-78
2023/09/13 03:52:58;;;;;;;0.10;0.10;;;;;;;16.37;100.00;96332.69;5027143;28;20095;-78
2023/09/13 03:55:43;;;;;;;0.10;0.10;;;;;;;16.38;100.00;96328.09;5026697;28;20068;-77
2023/09/13 03:58:30;;;;;;;0.00;0.00;;;;;;;16.36;100.00;96333.00;5023709;28;20107;-77
2023/09/13 04:01:16;;;;;;;0.00;0.00;;;;;;;16.43;100.00;96323.44;5026878;28;20507;-77
2023/09/13 04:04:02;;;;;;;0.10;0.10;;;;;;;16.44;100.00;96332.34;5012091;28;20041;-77
2023/09/13 04:06:39;;;;;;;0.10;0.10;;;;;;;16.40;100.00;96325.91;5103352;23;20053;-77
2023/09/13 04:09:24;;;;;;;0.10;0.10;;;;;;;16.39;100.00;96332.41;5013060;28;20043;-77
2023/09/13 04:12:11;;;;;;;0.00;0.00;;;;;;;16.35;100.00;96318.69;5026979;28;20038;-77
2023/09/13 04:14:56;;;;;;;0.10;0.10;;;;;;;16.37;100.00;96338.09;5026573;28;20120;-77
2023/09/13 04:17:42;;;;;;;0.10;0.10;;;;;;;16.42;100.00;96331.84;5026106;28;20053;-77
2023/09/13 04:20:28;;;;;;;0.00;0.00;;;;;;;16.41;100.00;96331.00;5010873;28;20540;-77
2023/09/13 04:23:14;;;;;;;0.00;0.00;;;;;;;16.40;100.00;96332.13;5013240;28;20483;-77
2023/09/13 04:26:00;;;;;;;0.00;0.00;;;;;;;16.38;100.00;96342.41;5025162;28;20056;-77
2023/09/13 04:28:52;;;;;;;0.10;0.10;;;;;;;16.41;100.00;96344.50;5025730;28;20042;-77
2023/09/13 04:31:38;;;;;;;0.10;0.10;;;;;;;16.34;100.00;96343.25;5017792;28;20088;-77
2023/09/13 04:34:30;;;;;;;0.00;0.00;;;;;;;16.31;100.00;96344.66;5018559;28;20033;-79
2023/09/13 04:37:16;;;;;;;0.03;0.03;;;;;;;16.27;100.00;96343.63;5017830;28;20045;-79
2023/09/13 04:40:05;;;;;;;0.00;0.00;;;;;;;16.28;100.00;96339.84;5015644;28;20064;-79
2023/09/13 04:42:57;;;;;;;0.10;0.10;;;;;;;16.25;100.00;96340.38;5023883;28;20144;-79
2023/09/13 04:45:43;;;;;;;0.00;0.00;;;;;;;16.24;100.00;96346.06;5024615;28;20171;-76
2023/09/13 04:48:29;;;;;;;0.00;0.00;;;;;;;16.22;100.00;96346.38;5025522;28;20049;-76
2023/09/13 04:51:15;;;;;;;0.10;0.10;;;;;;;16.23;100.00;96344.47;5022811;28;20279;-76
2023/09/13 04:54:02;;;;;;;0.10;0.10;;;;;;;16.26;100.00;96346.59;5025125;28;20048;-76
2023/09/13 04:56:48;;;;;;;0.00;0.00;;;;;;;16.25;100.00;96351.19;5009546;28;20140;-76
2023/09/13 04:59:42;;;;;;;0.05;0.05;;;;;;;16.26;100.00;96366.28;5023677;28;20508;-76
2023/09/13 05:02:28;;;;;;;0.10;0.10;;;;;;;16.24;100.00;96364.97;5010611;28;20041;-76
2023/09/13 05:05:14;;;;;;;0.03;0.03;;;;;;;16.27;100.00;96369.81;5021303;28;20052;-76
2023/09/13 05:08:00;;;;;;;0.00;0.00;;;;;;;16.28;100.00;96371.44;5026903;28;20119;-76
2023/09/13 05:10:46;;;;;;;0.00;0.00;;;;;;;16.30;100.00;96361.13;5028467;28;20484;-76
2023/09/13 05:13:32;;;;;;;0.03;0.03;;;;;;;16.29;100.00;96370.34;5025188;28;20465;-76
2023/09/13 05:16:19;;;;;;;0.10;0.10;;;;;;;16.32;100.00;96384.03;5023189;28;20041;-76
2023/09/13 05:19:05;;;;;;;0.00;0.00;;;;;;;16.30;100.00;96380.03;5025913;28;20350;-76
2023/09/13 05:21:51;;;;;;;0.00;0.00;;;;;;;16.31;100.00;96387.84;5026006;28;20328;-76
2023/09/13 05:24:37;;;;;;;0.10;0.10;;;;;;;16.24;100.00;96386.56;5023026;28;20091;-76
2023/09/13 05:27:23;;;;;;;0.10;0.10;;;;;;;16.23;100.00;96398.47;5015488;28;20041;-76
2023/09/13 05:30:09;;;;;;;0.10;0.10;;;;;;;16.22;100.00;96392.25;5025152;28;20412;-76
2023/09/13 05:32:55;;;;;;;0.10;0.10;;;;;;;16.26;100.00;96390.59;5025328;28;20057;-78
2023/09/13 05:35:41;;;;;;;0.10;0.10;;;;;;;16.27;100.00;96389.53;5023051;28;20060;-79
2023/09/13 05:38:27;;;;;;;0.10;0.10;;;;;;;16.35;100.00;96394.28;5024757;28;20048;-78
2023/09/13 05:41:13;;;;;;;0.05;0.05;;;;;;;16.32;100.00;96400.25;5026577;28;20041;-78
2023/09/13 05:43:58;;;;;;;0.10;0.10;;;;;;;16.31;100.00;96403.25;5024706;28;20407;-78
2023/09/13 05:46:44;;;;;;;0.10;0.10;;;;;;;16.33;100.00;96395.66;5024957;28;20037;-77
2023/09/13 05:49:30;;;;;;;0.10;0.10;;;;;;;16.29;100.00;96408.94;5027192;28;20484;-78
2023/09/13 05:52:16;;;;;;;0.10;0.10;;;;;;;16.24;100.00;96397.38;5025123;28;20164;-78
2023/09/13 05:55:02;;;;;;;0.10;0.10;;;;;;;16.23;100.00;96404.66;5024547;28;20403;-77
2023/09/13 05:57:50;;;;;;;0.00;0.00;;;;;;;16.29;100.00;96417.03;5014989;28;20038;-78
2023/09/13 06:00:36;;;;;;;0.03;0.03;;;;;;;16.30;100.00;96415.13;5022652;28;20045;-77
2023/09/13 06:03:22;;;;;;;0.10;0.10;;;;;;;16.34;100.00;96413.47;5026128;28;20127;-78
2023/09/13 06:06:11;;;;;;;0.10;0.10;;;;;;;16.30;100.00;96415.94;5013297;28;20053;-78
2023/09/13 06:08:58;;;;;;;0.10;0.10;;;;;;;16.26;100.00;96416.78;5004378;28;20374;-78
2023/09/13 06:11:43;;;;;;;0.10;0.10;;;;;;;16.29;100.00;96414.34;5004276;28;20048;-78
2023/09/13 06:14:31;;;;;;;0.00;0.00;;;;;;;16.32;100.00;96419.16;5005240;28;20041;-78
2023/09/13 06:17:17;;;;;;;0.10;0.10;;;;;;;16.29;100.00;96416.22;5006454;28;20052;-78
2023/09/13 06:20:04;;;;;;;0.10;0.10;;;;;;;16.34;100.00;96419.69;5005575;28;20054;-78
2023/09/13 06:22:50;;;;;;;0.10;0.10;;;;;;;16.36;100.00;96432.91;5004767;28;20042;-78
2023/09/13 06:25:36;;;;;;;0.10;0.10;;;;;;;16.33;100.00;96423.47;5004779;28;20053;-78
2023/09/13 06:28:22;;;;;;;0.10;0.10;;;;;;;16.34;100.00;96421.56;5005715;28;20034;-77
2023/09/13 06:31:08;;;;;;;0.10;0.10;;;;;;;16.40;100.00;96429.31;5002585;28;20373;-77
2023/09/13 06:33:54;;;;;;;0.10;0.10;;;;;;;16.36;100.00;96435.59;5004164;28;20078;-78
2023/09/13 06:36:40;;;;;;;0.10;0.10;;;;;;;16.23;100.00;96439.75;4989729;28;20029;-77
2023/09/13 06:39:28;;;;;;;0.10;0.10;;;;;;;16.30;100.00;96439.44;5003111;28;20081;-78
2023/09/13 06:42:14;;;;;;;0.10;0.10;;;;;;;16.29;100.00;96435.94;5006469;28;20042;-78
2023/09/13 06:45:02;;;;;;;0.10;0.10;;;;;;;16.33;100.00;96433.44;5002732;28;20255;-78
2023/09/13 06:47:48;;;;;;;0.10;0.10;;;;;;;16.35;100.00;96437.50;5005541;28;20045;-78
2023/09/13 06:50:34;;;;;;;0.10;0.10;;;;;;;16.33;100.00;96433.44;5005262;28;20049;-78
2023/09/13 06:53:20;;;;;;;0.10;0.10;;;;;;;16.32;100.00;96443.44;4997627;28;20033;-78
2023/09/13 06:56:08;;;;;;;0.10;0.10;;;;;;;16.33;100.00;96444.25;5009392;28;20030;-78
2023/09/13 06:58:53;;;;;;;0.10;0.10;;;;;;;16.32;100.00;96458.84;5009205;28;20049;-78
2023/09/13 07:01:40;;;;;;;0.10;0.10;;;;;;;16.25;100.00;96458.38;4998056;28;20124;-78
2023/09/13 07:04:26;;;;;;;0.10;0.10;;;;;;;16.25;100.00;96458.38;5009661;28;20375;-78
2023/09/13 07:07:14;;;;;;;0.10;0.10;;;;;;;16.22;100.00;96462.47;5026842;28;20056;-78
2023/09/13 07:10:02;;;;;;;0.05;0.05;;;;;;;16.22;100.00;96469.75;5030912;28;20112;-78
2023/09/13 07:12:47;;;;;;;0.10;0.10;;;;;;;16.21;100.00;96471.66;5028398;28;20041;-78
2023/09/13 07:15:34;;;;;;;0.10;0.10;;;;;;;16.17;100.00;96478.69;5028127;28;20033;-78
2023/09/13 07:18:19;;;;;;;0.10;0.10;;;;;;;16.19;100.00;96487.34;5030801;28;20049;-79
2023/09/13 07:21:08;;;;;;;0.10;0.10;;;;;;;16.30;100.00;96480.75;5026222;28;20110;-78
2023/09/13 07:23:53;;;;;;;0.15;0.15;;;;;;;16.44;100.00;96470.09;5026627;28;20112;-78
2023/09/13 07:26:39;;;;;;;0.10;0.10;;;;;;;16.42;100.00;96486.56;5018972;28;20045;-78
2023/09/13 07:29:25;;;;;;;0.10;0.10;;;;;;;16.26;100.00;96482.38;5028573;28;20685;-79
2023/09/13 07:32:11;;;;;;;0.10;0.10;;;;;;;16.29;100.00;96483.72;5026659;28;20068;-78
2023/09/13 07:34:57;;;;;;;0.10;0.10;;;;;;;16.39;100.00;96481.72;5028233;28;20037;-77
2023/09/13 07:37:43;;;;;;;0.10;0.10;;;;;;;16.38;100.00;96501.72;5029418;28;20049;-77
2023/09/13 07:40:28;;;;;;;0.10;0.10;;;;;;;16.26;100.00;96492.38;5027220;28;20491;-78
2023/09/13 07:43:16;;;;;;;0.10;0.10;;;;;;;16.29;100.00;96508.03;5025990;28;20037;-78
2023/09/13 07:46:04;;;;;;;0.10;0.10;;;;;;;16.48;100.00;96500.81;5027347;28;20404;-80
2023/09/13 07:48:49;;;;;;;0.10;0.10;;;;;;;16.55;100.00;96505.88;5027455;28;20522;-80
2023/09/13 07:51:36;;;;;;;0.10;0.10;;;;;;;16.69;100.00;96501.47;5029164;28;20064;-80
2023/09/13 07:54:21;;;;;;;0.20;0.20;;;;;;;16.75;100.00;96507.63;5026843;28;20041;-80
2023/09/13 07:57:07;;;;;;;0.10;0.10;;;;;;;16.59;100.00;96501.53;5025893;28;20068;-80
2023/09/13 07:59:53;;;;;;;0.10;0.10;;;;;;;16.57;100.00;96501.00;5029331;28;20057;-80
2023/09/13 08:02:41;;;;;;;0.10;0.10;;;;;;;16.54;100.00;96504.28;5024814;28;20112;-80
2023/09/13 08:05:27;;;;;;;0.10;0.10;;;;;;;16.69;100.00;96506.84;5025710;28;20095;-79
2023/09/13 08:08:22;;;;;;;0.10;0.10;;;;;;;16.88;100.00;96509.63;5009454;28;20044;-80
2023/09/13 08:11:08;;;;;;;0.10;0.10;;;;;;;17.03;100.00;96511.34;5013211;28;20049;-80
2023/09/13 08:13:54;;;;;;;0.10;0.10;;;;;;;17.10;100.00;96514.50;5011113;28;20136;-80
2023/09/13 08:16:40;;;;;;;0.10;0.10;;;;;;;17.14;100.00;96531.78;5010742;28;20428;-79
2023/09/13 08:19:25;;;;;;;0.10;0.10;;;;;;;17.16;100.00;96526.88;5009057;28;20102;-80
2023/09/13 08:22:11;;;;;;;0.10;0.10;;;;;;;17.20;100.00;96527.94;5011380;28;20050;-80
2023/09/13 08:24:57;;;;;;;0.10;0.10;;;;;;;17.27;100.00;96528.34;5009877;28;20569;-80
2023/09/13 08:27:43;;;;;;;0.10;0.10;;;;;;;17.21;100.00;96540.34;5009190;28;20594;-80
2023/09/13 08:30:29;;;;;;;0.10;0.10;;;;;;;17.20;100.00;96544.16;5008141;28;20053;-80
2023/09/13 08:33:16;;;;;;;0.10;0.10;;;;;;;17.16;100.00;96543.91;5012446;28;20068;-80
2023/09/13 08:36:02;;;;;;;0.10;0.10;;;;;;;17.14;100.00;96548.00;5010828;28;20041;-78
2023/09/13 08:38:48;;;;;;;0.10;0.10;;;;;;;17.27;100.00;96547.28;5011582;28;20404;-78
2023/09/13 08:41:34;;;;;;;0.10;0.10;;;;;;;17.29;100.00;96555.13;5010823;28;20049;-78
2023/09/13 08:44:21;;;;;;;0.10;0.10;;;;;;;17.45;100.00;96561.97;5011082;28;20080;-78
2023/09/13 08:47:10;;;;;;;0.10;0.10;;;;;;;17.52;100.00;96568.63;5008968;28;20575;-78
2023/09/13 08:49:58;;;;;;;0.10;0.10;;;;;;;17.81;100.00;96563.13;5010336;28;20038;-78
2023/09/13 08:52:45;;;;;;;0.10;0.10;;;;;;;17.79;100.00;96573.44;5010516;28;20478;-78
2023/09/13 08:55:32;;;;;;;0.10;0.10;;;;;;;17.57;100.00;96569.66;5007992;28;20046;-78
2023/09/13 08:58:18;;;;;;;0.10;0.10;;;;;;;17.73;100.00;96574.59;5009503;28;20045;-78
2023/09/13 09:01:09;;;;;;;0.10;0.10;;;;;;;18.14;100.00;96574.03;5009083;28;20497;-79
2023/09/13 09:03:55;;;;;;;0.10;0.10;;;;;;;18.02;100.00;96579.88;5010035;28;20042;-78
2023/09/13 09:06:42;;;;;;;0.10;0.10;;;;;;;18.09;100.00;96576.81;5019059;28;20562;-78
2023/09/13 09:09:31;;;;;;;0.10;0.10;;;;;;;18.07;100.00;96576.31;5026896;28;20392;-78
2023/09/13 09:12:20;;;;;;;0.10;0.10;;;;;;;18.02;100.00;96593.44;5026324;28;20625;-79
2023/09/13 09:15:08;;;;;;;0.10;0.10;;;;;;;17.88;100.00;96587.13;5033750;28;20481;-78
2023/09/13 09:17:55;;;;;;;0.10;0.10;;;;;;;17.80;100.00;96585.06;5042204;28;20329;-78
2023/09/13 09:20:43;;;;;;;0.10;0.10;;;;;;;17.65;100.00;96593.34;5033283;28;20053;-79
2023/09/13 09:23:34;;;;;;;0.10;0.10;;;;;;;17.71;100.00;96601.16;5029507;28;20488;-78
2023/09/13 09:26:20;;;;;;;0.10;0.10;;;;;;;17.52;100.00;96606.50;5030276;28;20458;-78
2023/09/13 09:29:34;;;;;;;0.10;0.10;;;;;;;17.45;100.00;96606.06;5026834;28;20041;-78
2023/09/13 09:32:20;;;;;;;0.10;0.10;;;;;;;17.60;100.00;96612.38;5026173;28;20069;-78
2023/09/13 09:35:07;;;;;;;0.10;0.10;;;;;;;17.71;100.00;96616.59;5030851;28;20037;-78
2023/09/13 09:37:52;;;;;;;0.10;0.10;;;;;;;17.60;100.00;96601.56;5032311;28;20053;-80
2023/09/13 09:40:38;;;;;;;0.10;0.10;;;;;;;17.72;100.00;96618.19;5026372;28;20045;-79
2023/09/13 09:43:24;;;;;;;0.10;0.10;;;;;;;17.75;100.00;96610.31;5030932;28;20037;-80
2023/09/13 09:46:10;;;;;;;0.10;0.10;;;;;;;17.86;100.00;96613.69;5032891;28;20172;-80
2023/09/13 09:48:56;;;;;;;0.17;0.17;;;;;;;17.74;100.00;96606.00;5020005;28;20130;-79
2023/09/13 09:51:42;;;;;;;0.10;0.10;;;;;;;17.69;100.00;96619.56;5026068;28;20047;-80
2023/09/13 09:54:28;;;;;;;0.15;0.15;;;;;;;17.65;100.00;96613.09;5023943;28;20041;-80
2023/09/13 09:57:22;;;;;;;0.10;0.10;;;;;;;17.81;100.00;96619.16;5023879;28;20466;-80
2023/09/13 10:00:09;;;;;;;0.10;0.10;;;;;;;17.97;100.00;96609.72;5026891;28;20139;-80
2023/09/13 10:02:55;;;;;;;0.10;0.10;;;;;;;18.25;100.00;96610.69;5029366;28;20081;-80
2023/09/13 10:05:58;;;;;;;0.03;0.03;;;;;;;18.64;100.00;96610.34;5035547;28;20107;-79
2023/09/13 10:08:46;;;;;;;0.10;0.10;;;;;;;19.09;100.00;96615.31;5009147;28;20554;-80
2023/09/13 10:11:32;;;;;;;0.20;0.20;;;;;;;19.41;100.00;96622.59;5037496;28;20139;-80
2023/09/13 10:14:26;;;;;;;0.10;0.10;;;;;;;19.25;100.00;96630.22;5031582;28;20029;-80
2023/09/13 10:17:12;;;;;;;0.10;0.10;;;;;;;19.00;100.00;96617.94;5009482;28;20056;-80
2023/09/13 10:19:58;;;;;;;0.10;0.10;;;;;;;18.84;100.00;96630.13;5037025;28;20383;-80
2023/09/13 10:22:46;;;;;;;0.20;0.20;;;;;;;18.85;100.00;96643.38;5028774;28;20458;-80
2023/09/13 10:25:34;;;;;;;0.10;0.10;;;;;;;18.78;100.00;96631.31;5032307;28;20038;-80
2023/09/13 10:28:24;;;;;;;0.10;0.10;;;;;;;18.90;100.00;96637.06;5029008;28;20072;-80
2023/09/13 10:31:16;;;;;;;0.10;0.10;;;;;;;19.11;100.00;96645.66;5028091;28;20136;-80
2023/09/13 10:34:08;;;;;;;0.10;0.10;;;;;;;19.32;100.00;96637.97;5031142;28;20033;-80
2023/09/13 10:37:07;;;;;;;0.10;0.10;;;;;;;19.67;100.00;96648.16;5028938;28;20124;-79
2023/09/13 10:40:10;;;;;;;0.10;0.10;;;;;;;19.85;100.00;96638.31;5022165;28;20398;-79
2023/09/13 10:42:56;;;;;;;0.10;0.10;;;;;;;20.14;100.00;96646.09;5035090;28;20048;-79
2023/09/13 10:45:42;;;;;;;0.10;0.10;;;;;;;20.08;100.00;96641.91;5026956;28;20131;-80
2023/09/13 10:48:29;;;;;;;0.10;0.10;;;;;;;20.22;100.00;96650.00;5024134;28;20094;-79
2023/09/13 10:51:17;;;;;;;0.10;0.10;;;;;;;20.16;100.00;96649.31;5039592;28;20063;-79
2023/09/13 10:54:04;;;;;;;0.20;0.20;;;;;;;20.19;100.00;96650.63;5023069;28;20139;-79
2023/09/13 10:56:51;;;;;;;0.10;0.10;;;;;;;20.34;100.00;96649.47;5025641;28;20066;-79
2023/09/13 10:59:39;;;;;;;0.10;0.10;;;;;;;20.40;100.00;96648.25;5025649;28;20049;-79
2023/09/13 11:02:26;;;;;;;0.10;0.10;;;;;;;20.49;100.00;96657.31;5025259;28;20785;-79
2023/09/13 11:05:13;;;;;;;0.10;0.10;;;;;;;20.68;100.00;96647.06;5026190;28;20525;-79
2023/09/13 11:07:59;;;;;;;0.20;0.20;;;;;;;21.30;100.00;96651.78;4124068;28;10000185;-79
2023/09/13 11:10:45;;;;;;;0.20;0.20;;;;;;;21.30;100.00;96649.06;5006662;28;20591;-79
2023/09/13 11:13:31;;;;;;;0.10;0.10;;;;;;;21.48;100.00;96656.22;5005338;28;20184;-80
2023/09/13 11:16:17;;;;;;;0.10;0.10;;;;;;;21.89;100.00;96661.34;5008003;28;20050;-79
2023/09/13 11:19:04;;;;;;;0.10;0.10;;;;;;;21.95;100.00;96660.06;5004167;28;20041;-80
2023/09/13 11:21:52;;;;;;;0.13;0.13;;;;;;;22.23;100.00;96659.84;5007064;28;20141;-79
2023/09/13 11:24:40;;;;;;;0.10;0.10;;;;;;;21.77;100.00;96657.59;4990054;28;20630;-79
2023/09/13 11:27:26;;;;;;;0.10;0.10;;;;;;;21.41;100.00;96673.00;4997467;28;20050;-79
2023/09/13 11:30:12;;;;;;;0.10;0.10;;;;;;;20.99;100.00;96670.78;4992135;28;20116;-79
2023/09/13 11:32:59;;;;;;;0.10;0.10;;;;;;;20.74;100.00;96672.22;4992995;28;20236;-79
2023/09/13 11:35:46;;;;;;;0.10;0.10;;;;;;;20.90;100.00;96670.72;4992598;28;20053;-79
2023/09/13 11:38:34;;;;;;;0.15;0.15;;;;;;;21.96;100.00;96672.56;5005884;28;20376;-81
2023/09/13 11:41:21;;;;;;;0.20;0.20;;;;;;;25.06;100.00;96667.66;5008076;28;20038;-81
2023/09/13 11:44:09;;;;;;;0.20;0.20;;;;;;;26.79;96.32;96660.78;5005893;28;20141;-81
2023/09/13 11:46:55;;;;;;;0.10;0.10;;;;;;;30.28;67.49;96664.25;5004762;28;20190;-79
2023/09/13 11:49:41;;;;;;;0.20;0.20;;;;;;;31.21;62.78;96661.53;5005992;28;20356;-79
2023/09/13 11:52:27;;;;;;;0.00;0.00;;;;;;;29.67;66.13;96666.00;4990501;28;20135;-79
2023/09/13 11:55:13;;;;;;;0.10;0.10;;;;;;;26.20;90.70;96677.00;5004415;28;20046;-82
2023/09/13 11:58:02;;;;;;;0.10;0.10;;;;;;;24.33;100.00;96679.00;5006072;28;20333;-81
2023/09/13 12:00:49;;;;;;;0.10;0.10;;;;;;;23.18;100.00;96678.94;5007132;28;20041;-78
2023/09/13 12:03:39;;;;;;;0.10;0.10;;;;;;;22.59;100.00;96680.56;4992675;28;20038;-78
2023/09/13 12:06:25;;;;;;;0.10;0.10;;;;;;;22.59;100.00;96681.38;5006922;28;20069;-78
2023/09/13 12:09:12;;;;;;;0.10;0.10;;;;;;;22.45;100.00;96676.06;4996863;28;20580;-78
2023/09/13 12:11:58;;;;;;;0.10;0.10;;;;;;;23.04;100.00;96673.69;5007679;28;20052;-78
2023/09/13 12:14:44;;;;;;;0.10;0.10;;;;;;;23.36;100.00;96674.25;5006655;28;20053;-79
2023/09/13 12:17:37;;;;;;;0.20;0.20;;;;;;;26.17;92.37;96667.53;5010333;28;20137;-80
2023/09/13 12:20:24;;;;;;;0.10;0.10;;;;;;;30.97;56.84;96662.84;5011582;28;20072;-80
2023/09/13 12:23:15;;;;;;;0.08;0.08;;;;;;;30.35;60.08;96667.91;5011870;28;20045;-80
2023/09/13 12:26:03;;;;;;;0.20;0.20;;;;;;;35.31;46.47;96664.94;5002776;28;20081;-80
2023/09/13 12:28:48;;;;;;;0.20;0.20;;;;;;;37.45;37.24;96663.81;5009802;28;20464;-80
2023/09/13 12:31:34;;;;;;;0.10;0.10;;;;;;;38.67;36.71;96673.81;5012054;28;20433;-80
2023/09/13 12:34:20;;;;;;;0.10;0.10;;;;;;;38.49;33.37;96676.16;5011187;28;20038;-80
2023/09/13 12:37:06;;;;;;;0.10;0.10;;;;;;;39.13;34.46;96683.31;5012534;28;20067;-81
2023/09/13 12:39:52;;;;;;;0.10;0.10;;;;;;;39.35;31.52;96678.88;5010544;28;20050;-81
2023/09/13 12:42:38;;;;;;;0.00;0.00;;;;;;;35.12;37.20;96674.56;5011340;28;20042;-81
2023/09/13 12:45:29;;;;;;;0.10;0.10;;;;;;;33.22;42.21;96682.06;4999268;28;20033;-81
2023/09/13 12:48:18;;;;;;;0.00;0.00;;;;;;;30.95;49.53;96683.72;5010039;28;20088;-81
2023/09/13 12:51:04;;;;;;;0.00;0.00;;;;;;;28.63;58.01;96693.38;5009827;28;20512;-81
2023/09/13 12:53:55;;;;;;;0.00;0.00;;;;;;;27.19;67.42;96684.69;4996142;28;20068;-81
2023/09/13 12:56:41;;;;;;;0.10;0.10;;;;;;;26.81;75.16;96687.88;5014003;28;20052;-81
2023/09/13 12:59:41;;;;;;;0.20;0.20;;;;;;;31.63;50.69;96677.00;5010401;28;20068;-81